63CN weather

Meadowlark Field
Livermore, California, United States

Public forecast

Using degrees Fahrenheit for public forecast. Weather courtesy of forecast.io.

METAR (pilot weather report)

Closest report is Livermore Municipal Airport, 6.3 nm (11.6 km) WNW. Retrieved 2019/06/19 18:53 UTC (48 minutes ago):

KLVK 191853Z VRB03KT 10SM CLR 25/14 A2992 RMK AO2 SLP129 T02500144

TAF (pilot weather forecast)

Closest forecast is Livermore Municipal Airport, 6.3 nm (11.6 km) WNW. Retrieved 2019/06/19 18:42 UTC (59 minutes ago):

TAF KLVK 191739Z 1918/2018 25007KT P6SM SKC FM192200 29014KT P6SM SKC FM201000 27013KT P6SM BKN010 FM201600 26012KT P6SM FEW010